sensor_id;sensor_type;location;lat;lon;timestamp;P1;durP1;ratioP1;P2;durP2;ratioP2
19897;SDS011;10111;50.814;4.572;2023-02-01T00:01:51;19.03;;;6.90;;
19897;SDS011;10111;50.814;4.572;2023-02-01T00:04:16;16.27;;;7.33;;
19897;SDS011;10111;50.814;4.572;2023-02-01T00:06:42;14.90;;;7.00;;
19897;SDS011;10111;50.814;4.572;2023-02-01T00:09:07;13.77;;;6.60;;
19897;SDS011;10111;50.814;4.572;2023-02-01T00:11:33;12.83;;;8.17;;
19897;SDS011;10111;50.814;4.572;2023-02-01T00:13:59;19.13;;;8.63;;
19897;SDS011;10111;50.814;4.572;2023-02-01T00:16:26;14.50;;;8.07;;
19897;SDS011;10111;50.814;4.572;2023-02-01T00:19:13;23.23;;;10.70;;
19897;SDS011;10111;50.814;4.572;2023-02-01T00:21:39;14.93;;;9.00;;
19897;SDS011;10111;50.814;4.572;2023-02-01T00:24:06;16.80;;;8.73;;
19897;SDS011;10111;50.814;4.572;2023-02-01T00:26:35;18.63;;;9.50;;
19897;SDS011;10111;50.814;4.572;2023-02-01T00:29:07;18.17;;;8.70;;
19897;SDS011;10111;50.814;4.572;2023-02-01T00:31:38;12.73;;;8.00;;
19897;SDS011;10111;50.814;4.572;2023-02-01T00:34:04;19.40;;;8.30;;
19897;SDS011;10111;50.814;4.572;2023-02-01T00:36:30;15.87;;;9.30;;
19897;SDS011;10111;50.814;4.572;2023-02-01T00:38:56;12.90;;;7.30;;
19897;SDS011;10111;50.814;4.572;2023-02-01T00:41:22;16.40;;;9.00;;
19897;SDS011;10111;50.814;4.572;2023-02-01T00:43:48;10.83;;;7.87;;
19897;SDS011;10111;50.814;4.572;2023-02-01T00:46:15;17.03;;;9.37;;
19897;SDS011;10111;50.814;4.572;2023-02-01T00:48:43;13.40;;;7.90;;
19897;SDS011;10111;50.814;4.572;2023-02-01T00:51:10;17.37;;;8.67;;
19897;SDS011;10111;50.814;4.572;2023-02-01T00:53:37;21.53;;;8.37;;
19897;SDS011;10111;50.814;4.572;2023-02-01T00:56:03;16.80;;;7.97;;
19897;SDS011;10111;50.814;4.572;2023-02-01T00:58:30;14.60;;;7.93;;
19897;SDS011;10111;50.814;4.572;2023-02-01T01:01:07;13.77;;;7.87;;
19897;SDS011;10111;50.814;4.572;2023-02-01T01:03:33;17.80;;;7.17;;
19897;SDS011;10111;50.814;4.572;2023-02-01T01:06:01;13.33;;;6.23;;
19897;SDS011;10111;50.814;4.572;2023-02-01T01:08:29;10.83;;;5.97;;
19897;SDS011;10111;50.814;4.572;2023-02-01T01:10:55;16.17;;;6.70;;
19897;SDS011;10111;50.814;4.572;2023-02-01T01:13:21;14.03;;;6.20;;
19897;SDS011;10111;50.814;4.572;2023-02-01T01:15:47;9.57;;;5.90;;
19897;SDS011;10111;50.814;4.572;2023-02-01T01:18:13;9.90;;;4.73;;
19897;SDS011;10111;50.814;4.572;2023-02-01T01:20:39;10.87;;;5.30;;
19897;SDS011;10111;50.814;4.572;2023-02-01T01:23:06;9.23;;;5.17;;
19897;SDS011;10111;50.814;4.572;2023-02-01T01:25:36;9.97;;;5.23;;
19897;SDS011;10111;50.814;4.572;2023-02-01T01:28:05;11.80;;;6.23;;
19897;SDS011;10111;50.814;4.572;2023-02-01T01:30:33;16.03;;;5.67;;
19897;SDS011;10111;50.814;4.572;2023-02-01T01:32:59;15.90;;;5.13;;
19897;SDS011;10111;50.814;4.572;2023-02-01T01:35:24;12.63;;;5.30;;
19897;SDS011;10111;50.814;4.572;2023-02-01T01:37:50;8.23;;;4.37;;
19897;SDS011;10111;50.814;4.572;2023-02-01T01:40:16;13.50;;;5.30;;
19897;SDS011;10111;50.814;4.572;2023-02-01T01:42:42;11.13;;;4.90;;
19897;SDS011;10111;50.814;4.572;2023-02-01T01:47:44;7.63;;;4.40;;
19897;SDS011;10111;50.814;4.572;2023-02-01T01:50:14;13.67;;;4.57;;
19897;SDS011;10111;50.814;4.572;2023-02-01T01:52:45;7.67;;;3.93;;
19897;SDS011;10111;50.814;4.572;2023-02-01T01:55:13;14.33;;;4.77;;
19897;SDS011;10111;50.814;4.572;2023-02-01T01:57:42;13.63;;;4.37;;
19897;SDS011;10111;50.814;4.572;2023-02-01T02:00:12;10.40;;;4.90;;
19897;SDS011;10111;50.814;4.572;2023-02-01T02:02:41;11.17;;;5.10;;
19897;SDS011;10111;50.814;4.572;2023-02-01T02:05:09;9.13;;;3.33;;
19897;SDS011;10111;50.814;4.572;2023-02-01T02:07:37;12.63;;;4.17;;
19897;SDS011;10111;50.814;4.572;2023-02-01T02:10:06;9.83;;;3.93;;
19897;SDS011;10111;50.814;4.572;2023-02-01T02:12:37;7.77;;;4.00;;
19897;SDS011;10111;50.814;4.572;2023-02-01T02:15:04;9.70;;;3.40;;
19897;SDS011;10111;50.814;4.572;2023-02-01T02:34:17;8.60;;;2.80;;
19897;SDS011;10111;50.814;4.572;2023-02-01T02:39:38;15.10;;;3.83;;
19897;SDS011;10111;50.814;4.572;2023-02-01T02:42:13;13.80;;;3.20;;
19897;SDS011;10111;50.814;4.572;2023-02-01T02:45:28;8.23;;;3.17;;
19897;SDS011;10111;50.814;4.572;2023-02-01T02:48:26;14.33;;;3.47;;
19897;SDS011;10111;50.814;4.572;2023-02-01T02:54:10;7.87;;;2.60;;
19897;SDS011;10111;50.814;4.572;2023-02-01T02:56:57;6.03;;;2.77;;
19897;SDS011;10111;50.814;4.572;2023-02-01T02:59:45;10.10;;;2.93;;
19897;SDS011;10111;50.814;4.572;2023-02-01T03:02:31;6.63;;;3.67;;
19897;SDS011;10111;50.814;4.572;2023-02-01T03:05:17;15.73;;;2.63;;
19897;SDS011;10111;50.814;4.572;2023-02-01T03:13:19;12.97;;;3.17;;
19897;SDS011;10111;50.814;4.572;2023-02-01T03:15:51;12.30;;;3.47;;
19897;SDS011;10111;50.814;4.572;2023-02-01T03:19:03;5.43;;;2.50;;
19897;SDS011;10111;50.814;4.572;2023-02-01T03:24:11;12.57;;;2.80;;
19897;SDS011;10111;50.814;4.572;2023-02-01T03:26:42;10.13;;;3.40;;
19897;SDS011;10111;50.814;4.572;2023-02-01T03:29:21;9.03;;;2.70;;
19897;SDS011;10111;50.814;4.572;2023-02-01T03:31:54;7.10;;;2.90;;
19897;SDS011;10111;50.814;4.572;2023-02-01T03:34:20;4.80;;;2.47;;
19897;SDS011;10111;50.814;4.572;2023-02-01T03:36:58;10.57;;;3.37;;
19897;SDS011;10111;50.814;4.572;2023-02-01T03:39:31;8.20;;;3.00;;
19897;SDS011;10111;50.814;4.572;2023-02-01T03:42:04;13.27;;;3.07;;
19897;SDS011;10111;50.814;4.572;2023-02-01T03:44:34;10.13;;;2.47;;
19897;SDS011;10111;50.814;4.572;2023-02-01T03:47:08;9.63;;;3.13;;
19897;SDS011;10111;50.814;4.572;2023-02-01T03:49:50;10.90;;;3.23;;
19897;SDS011;10111;50.814;4.572;2023-02-01T03:52:28;7.60;;;3.17;;
19897;SDS011;10111;50.814;4.572;2023-02-01T03:54:57;8.20;;;3.37;;
19897;SDS011;10111;50.814;4.572;2023-02-01T03:57:29;9.37;;;3.43;;
19897;SDS011;10111;50.814;4.572;2023-02-01T04:00:17;9.43;;;3.77;;
19897;SDS011;10111;50.814;4.572;2023-02-01T04:02:44;7.17;;;2.37;;
19897;SDS011;10111;50.814;4.572;2023-02-01T04:05:10;10.43;;;3.63;;
19897;SDS011;10111;50.814;4.572;2023-02-01T04:07:36;7.77;;;3.27;;
19897;SDS011;10111;50.814;4.572;2023-02-01T04:10:02;7.37;;;2.70;;
19897;SDS011;10111;50.814;4.572;2023-02-01T04:12:29;16.13;;;3.30;;
19897;SDS011;10111;50.814;4.572;2023-02-01T04:14:54;9.73;;;2.50;;
19897;SDS011;10111;50.814;4.572;2023-02-01T04:17:20;9.27;;;4.07;;
19897;SDS011;10111;50.814;4.572;2023-02-01T04:19:46;8.47;;;3.03;;
19897;SDS011;10111;50.814;4.572;2023-02-01T04:22:11;15.20;;;4.00;;
19897;SDS011;10111;50.814;4.572;2023-02-01T04:24:37;7.63;;;2.60;;
19897;SDS011;10111;50.814;4.572;2023-02-01T04:27:03;11.80;;;3.73;;
19897;SDS011;10111;50.814;4.572;2023-02-01T04:29:29;7.50;;;2.50;;
19897;SDS011;10111;50.814;4.572;2023-02-01T04:31:54;10.13;;;2.97;;
19897;SDS011;10111;50.814;4.572;2023-02-01T04:34:20;7.87;;;2.83;;
19897;SDS011;10111;50.814;4.572;2023-02-01T04:36:47;10.23;;;3.00;;
19897;SDS011;10111;50.814;4.572;2023-02-01T04:39:13;8.20;;;4.03;;
19897;SDS011;10111;50.814;4.572;2023-02-01T04:41:39;17.07;;;2.70;;
19897;SDS011;10111;50.814;4.572;2023-02-01T04:44:05;12.63;;;2.57;;
19897;SDS011;10111;50.814;4.572;2023-02-01T04:46:30;13.20;;;3.13;;
19897;SDS011;10111;50.814;4.572;2023-02-01T04:48:56;6.53;;;2.53;;
19897;SDS011;10111;50.814;4.572;2023-02-01T04:51:22;16.73;;;3.27;;
19897;SDS011;10111;50.814;4.572;2023-02-01T04:53:47;12.13;;;3.10;;
19897;SDS011;10111;50.814;4.572;2023-02-01T04:56:13;12.50;;;3.37;;
19897;SDS011;10111;50.814;4.572;2023-02-01T04:58:39;10.07;;;4.50;;
19897;SDS011;10111;50.814;4.572;2023-02-01T05:01:05;11.00;;;2.80;;
19897;SDS011;10111;50.814;4.572;2023-02-01T05:03:32;7.60;;;3.77;;
19897;SDS011;10111;50.814;4.572;2023-02-01T05:05:58;16.27;;;3.33;;
19897;SDS011;10111;50.814;4.572;2023-02-01T05:08:24;13.90;;;2.77;;
19897;SDS011;10111;50.814;4.572;2023-02-01T05:10:50;20.70;;;3.00;;
19897;SDS011;10111;50.814;4.572;2023-02-01T05:13:16;14.37;;;2.77;;
19897;SDS011;10111;50.814;4.572;2023-02-01T05:16:00;10.60;;;2.53;;
19897;SDS011;10111;50.814;4.572;2023-02-01T05:18:26;10.80;;;2.87;;
19897;SDS011;10111;50.814;4.572;2023-02-01T05:20:52;12.07;;;2.97;;
19897;SDS011;10111;50.814;4.572;2023-02-01T05:23:18;11.73;;;3.13;;
19897;SDS011;10111;50.814;4.572;2023-02-01T05:25:43;15.43;;;4.10;;
19897;SDS011;10111;50.814;4.572;2023-02-01T05:28:09;11.83;;;3.13;;
19897;SDS011;10111;50.814;4.572;2023-02-01T05:30:34;11.43;;;2.70;;
19897;SDS011;10111;50.814;4.572;2023-02-01T05:33:01;9.43;;;3.60;;
19897;SDS011;10111;50.814;4.572;2023-02-01T05:35:27;10.73;;;3.07;;
19897;SDS011;10111;50.814;4.572;2023-02-01T05:37:52;12.10;;;3.27;;
19897;SDS011;10111;50.814;4.572;2023-02-01T05:40:18;12.10;;;4.57;;
19897;SDS011;10111;50.814;4.572;2023-02-01T05:42:44;9.80;;;3.93;;
19897;SDS011;10111;50.814;4.572;2023-02-01T05:45:10;10.10;;;3.20;;
19897;SDS011;10111;50.814;4.572;2023-02-01T05:47:36;6.87;;;2.87;;
19897;SDS011;10111;50.814;4.572;2023-02-01T05:50:02;10.97;;;3.20;;
19897;SDS011;10111;50.814;4.572;2023-02-01T05:52:28;5.97;;;2.23;;
19897;SDS011;10111;50.814;4.572;2023-02-01T05:54:54;11.80;;;3.07;;
19897;SDS011;10111;50.814;4.572;2023-02-01T05:57:20;8.93;;;2.93;;
19897;SDS011;10111;50.814;4.572;2023-02-01T05:59:45;5.03;;;2.57;;
19897;SDS011;10111;50.814;4.572;2023-02-01T06:02:12;15.53;;;4.07;;
19897;SDS011;10111;50.814;4.572;2023-02-01T06:04:38;10.10;;;2.57;;
19897;SDS011;10111;50.814;4.572;2023-02-01T06:07:04;4.07;;;2.27;;
19897;SDS011;10111;50.814;4.572;2023-02-01T06:09:32;15.87;;;3.90;;
19897;SDS011;10111;50.814;4.572;2023-02-01T06:11:59;8.90;;;3.30;;
19897;SDS011;10111;50.814;4.572;2023-02-01T06:14:26;12.33;;;3.80;;
19897;SDS011;10111;50.814;4.572;2023-02-01T06:16:52;13.50;;;3.77;;
19897;SDS011;10111;50.814;4.572;2023-02-01T06:19:21;13.73;;;3.10;;
19897;SDS011;10111;50.814;4.572;2023-02-01T06:21:47;14.37;;;2.80;;
19897;SDS011;10111;50.814;4.572;2023-02-01T06:24:13;13.27;;;3.60;;
19897;SDS011;10111;50.814;4.572;2023-02-01T06:26:38;11.00;;;2.97;;
19897;SDS011;10111;50.814;4.572;2023-02-01T06:29:05;12.13;;;3.97;;
19897;SDS011;10111;50.814;4.572;2023-02-01T06:31:31;20.80;;;5.00;;
19897;SDS011;10111;50.814;4.572;2023-02-01T06:33:57;8.07;;;2.57;;
19897;SDS011;10111;50.814;4.572;2023-02-01T06:36:23;10.53;;;3.30;;
19897;SDS011;10111;50.814;4.572;2023-02-01T06:38:49;8.40;;;2.43;;
19897;SDS011;10111;50.814;4.572;2023-02-01T06:41:15;13.07;;;3.00;;
19897;SDS011;10111;50.814;4.572;2023-02-01T06:43:41;9.13;;;2.93;;
19897;SDS011;10111;50.814;4.572;2023-02-01T06:46:07;15.87;;;3.37;;
19897;SDS011;10111;50.814;4.572;2023-02-01T06:48:36;12.17;;;3.03;;
19897;SDS011;10111;50.814;4.572;2023-02-01T06:51:01;14.33;;;3.37;;
19897;SDS011;10111;50.814;4.572;2023-02-01T06:53:27;8.67;;;2.77;;
19897;SDS011;10111;50.814;4.572;2023-02-01T06:55:55;10.70;;;2.77;;
19897;SDS011;10111;50.814;4.572;2023-02-01T06:58:28;10.00;;;3.70;;
19897;SDS011;10111;50.814;4.572;2023-02-01T07:00:54;19.10;;;2.97;;
19897;SDS011;10111;50.814;4.572;2023-02-01T07:03:20;7.23;;;3.83;;
19897;SDS011;10111;50.814;4.572;2023-02-01T07:05:46;8.20;;;2.60;;
19897;SDS011;10111;50.814;4.572;2023-02-01T07:08:11;10.10;;;2.80;;
19897;SDS011;10111;50.814;4.572;2023-02-01T07:10:37;14.43;;;2.70;;
19897;SDS011;10111;50.814;4.572;2023-02-01T07:13:03;6.43;;;2.50;;
19897;SDS011;10111;50.814;4.572;2023-02-01T07:15:29;8.23;;;2.83;;
19897;SDS011;10111;50.814;4.572;2023-02-01T07:17:55;7.63;;;2.27;;
19897;SDS011;10111;50.814;4.572;2023-02-01T07:20:20;4.20;;;1.87;;
19897;SDS011;10111;50.814;4.572;2023-02-01T07:22:46;6.33;;;2.50;;
19897;SDS011;10111;50.814;4.572;2023-02-01T07:25:12;11.53;;;2.77;;
19897;SDS011;10111;50.814;4.572;2023-02-01T07:27:38;11.50;;;3.47;;
19897;SDS011;10111;50.814;4.572;2023-02-01T07:30:04;10.60;;;3.50;;
19897;SDS011;10111;50.814;4.572;2023-02-01T07:32:31;10.87;;;3.70;;
19897;SDS011;10111;50.814;4.572;2023-02-01T07:34:57;11.70;;;2.80;;
19897;SDS011;10111;50.814;4.572;2023-02-01T07:37:24;14.73;;;3.23;;
19897;SDS011;10111;50.814;4.572;2023-02-01T07:39:50;5.87;;;2.50;;
19897;SDS011;10111;50.814;4.572;2023-02-01T07:42:16;13.33;;;3.73;;
19897;SDS011;10111;50.814;4.572;2023-02-01T07:44:42;5.67;;;2.23;;
19897;SDS011;10111;50.814;4.572;2023-02-01T07:47:08;10.87;;;2.80;;
19897;SDS011;10111;50.814;4.572;2023-02-01T07:49:33;7.77;;;2.60;;
19897;SDS011;10111;50.814;4.572;2023-02-01T07:51:59;10.87;;;3.17;;
19897;SDS011;10111;50.814;4.572;2023-02-01T07:54:25;8.13;;;2.17;;
19897;SDS011;10111;50.814;4.572;2023-02-01T07:56:50;13.50;;;3.27;;
19897;SDS011;10111;50.814;4.572;2023-02-01T07:59:16;14.80;;;2.63;;
19897;SDS011;10111;50.814;4.572;2023-02-01T08:01:42;11.30;;;3.30;;
19897;SDS011;10111;50.814;4.572;2023-02-01T08:04:08;8.47;;;3.13;;
19897;SDS011;10111;50.814;4.572;2023-02-01T08:06:37;7.47;;;2.83;;
19897;SDS011;10111;50.814;4.572;2023-02-01T08:09:03;9.67;;;3.17;;
19897;SDS011;10111;50.814;4.572;2023-02-01T08:11:30;12.17;;;3.13;;
19897;SDS011;10111;50.814;4.572;2023-02-01T08:13:56;6.67;;;2.90;;
19897;SDS011;10111;50.814;4.572;2023-02-01T08:16:22;12.63;;;3.27;;
19897;SDS011;10111;50.814;4.572;2023-02-01T08:18:49;11.87;;;2.87;;
19897;SDS011;10111;50.814;4.572;2023-02-01T08:21:17;8.03;;;3.50;;
19897;SDS011;10111;50.814;4.572;2023-02-01T08:23:44;8.23;;;3.10;;
19897;SDS011;10111;50.814;4.572;2023-02-01T08:26:16;6.40;;;2.20;;
19897;SDS011;10111;50.814;4.572;2023-02-01T08:28:48;9.30;;;3.63;;
19897;SDS011;10111;50.814;4.572;2023-02-01T08:31:16;6.77;;;1.83;;
19897;SDS011;10111;50.814;4.572;2023-02-01T08:33:47;7.13;;;2.20;;
19897;SDS011;10111;50.814;4.572;2023-02-01T08:36:14;10.10;;;2.60;;
19897;SDS011;10111;50.814;4.572;2023-02-01T08:38:40;12.30;;;3.27;;
19897;SDS011;10111;50.814;4.572;2023-02-01T08:41:07;12.40;;;4.57;;
19897;SDS011;10111;50.814;4.572;2023-02-01T08:43:37;7.47;;;2.97;;
19897;SDS011;10111;50.814;4.572;2023-02-01T08:46:04;9.30;;;2.67;;
19897;SDS011;10111;50.814;4.572;2023-02-01T08:48:30;8.13;;;3.20;;
19897;SDS011;10111;50.814;4.572;2023-02-01T08:50:56;8.53;;;2.97;;
19897;SDS011;10111;50.814;4.572;2023-02-01T08:53:22;9.73;;;3.17;;
19897;SDS011;10111;50.814;4.572;2023-02-01T08:55:49;9.43;;;3.37;;
19897;SDS011;10111;50.814;4.572;2023-02-01T08:58:15;8.50;;;2.40;;
19897;SDS011;10111;50.814;4.572;2023-02-01T09:00:42;12.17;;;2.70;;
19897;SDS011;10111;50.814;4.572;2023-02-01T09:03:09;8.67;;;2.50;;
19897;SDS011;10111;50.814;4.572;2023-02-01T09:05:36;12.87;;;3.47;;
19897;SDS011;10111;50.814;4.572;2023-02-01T09:08:02;9.27;;;3.83;;
19897;SDS011;10111;50.814;4.572;2023-02-01T09:10:28;11.47;;;3.77;;
19897;SDS011;10111;50.814;4.572;2023-02-01T09:12:53;17.57;;;5.30;;
19897;SDS011;10111;50.814;4.572;2023-02-01T09:15:19;10.50;;;3.20;;
19897;SDS011;10111;50.814;4.572;2023-02-01T09:17:45;14.17;;;3.70;;
19897;SDS011;10111;50.814;4.572;2023-02-01T09:20:10;13.83;;;3.73;;
19897;SDS011;10111;50.814;4.572;2023-02-01T09:22:36;5.20;;;2.37;;
19897;SDS011;10111;50.814;4.572;2023-02-01T09:25:02;14.37;;;2.83;;
19897;SDS011;10111;50.814;4.572;2023-02-01T09:27:28;7.73;;;2.30;;
19897;SDS011;10111;50.814;4.572;2023-02-01T09:29:54;7.57;;;2.97;;
19897;SDS011;10111;50.814;4.572;2023-02-01T09:32:20;6.57;;;2.90;;
19897;SDS011;10111;50.814;4.572;2023-02-01T09:34:47;14.47;;;3.57;;
19897;SDS011;10111;50.814;4.572;2023-02-01T09:37:13;13.70;;;4.10;;
19897;SDS011;10111;50.814;4.572;2023-02-01T09:39:38;5.77;;;2.70;;
19897;SDS011;10111;50.814;4.572;2023-02-01T09:47:36;11.33;;;2.90;;
19897;SDS011;10111;50.814;4.572;2023-02-01T09:50:11;11.63;;;2.97;;
19897;SDS011;10111;50.814;4.572;2023-02-01T09:52:59;8.33;;;2.93;;
19897;SDS011;10111;50.814;4.572;2023-02-01T09:55:42;6.27;;;2.63;;
19897;SDS011;10111;50.814;4.572;2023-02-01T09:58:16;13.33;;;4.10;;
19897;SDS011;10111;50.814;4.572;2023-02-01T10:00:45;9.73;;;3.33;;
19897;SDS011;10111;50.814;4.572;2023-02-01T10:03:20;8.77;;;3.20;;
19897;SDS011;10111;50.814;4.572;2023-02-01T10:16:57;7.20;;;2.33;;
19897;SDS011;10111;50.814;4.572;2023-02-01T10:19:54;11.03;;;3.77;;
19897;SDS011;10111;50.814;4.572;2023-02-01T10:22:45;6.33;;;2.47;;
19897;SDS011;10111;50.814;4.572;2023-02-01T10:25:22;6.67;;;2.80;;
19897;SDS011;10111;50.814;4.572;2023-02-01T10:27:59;5.93;;;2.70;;
19897;SDS011;10111;50.814;4.572;2023-02-01T10:30:28;10.77;;;2.90;;
19897;SDS011;10111;50.814;4.572;2023-02-01T10:33:17;6.37;;;2.27;;
19897;SDS011;10111;50.814;4.572;2023-02-01T10:36:08;3.33;;;2.60;;
19897;SDS011;10111;50.814;4.572;2023-02-01T10:38:42;9.10;;;2.47;;
19897;SDS011;10111;50.814;4.572;2023-02-01T10:41:15;5.10;;;2.07;;
19897;SDS011;10111;50.814;4.572;2023-02-01T10:43:44;8.97;;;3.00;;
19897;SDS011;10111;50.814;4.572;2023-02-01T10:46:13;8.57;;;2.70;;
19897;SDS011;10111;50.814;4.572;2023-02-01T10:48:39;6.30;;;2.27;;
19897;SDS011;10111;50.814;4.572;2023-02-01T10:51:06;10.73;;;2.63;;
19897;SDS011;10111;50.814;4.572;2023-02-01T10:56:25;7.83;;;3.13;;
19897;SDS011;10111;50.814;4.572;2023-02-01T10:58:59;11.50;;;3.00;;
19897;SDS011;10111;50.814;4.572;2023-02-01T11:04:26;6.37;;;2.87;;
19897;SDS011;10111;50.814;4.572;2023-02-01T11:06:54;6.37;;;2.30;;
19897;SDS011;10111;50.814;4.572;2023-02-01T11:09:32;10.23;;;2.37;;
19897;SDS011;10111;50.814;4.572;2023-02-01T11:12:04;6.60;;;2.30;;
19897;SDS011;10111;50.814;4.572;2023-02-01T11:14:39;13.10;;;2.47;;
19897;SDS011;10111;50.814;4.572;2023-02-01T11:19:46;4.70;;;2.07;;
19897;SDS011;10111;50.814;4.572;2023-02-01T11:22:20;11.60;;;3.17;;
19897;SDS011;10111;50.814;4.572;2023-02-01T11:24:46;7.23;;;1.73;;
19897;SDS011;10111;50.814;4.572;2023-02-01T11:27:22;6.37;;;1.97;;
19897;SDS011;10111;50.814;4.572;2023-02-01T11:29:50;6.00;;;2.37;;
19897;SDS011;10111;50.814;4.572;2023-02-01T11:32:18;8.50;;;2.00;;
19897;SDS011;10111;50.814;4.572;2023-02-01T11:34:50;14.43;;;2.60;;
19897;SDS011;10111;50.814;4.572;2023-02-01T11:37:38;7.00;;;2.23;;
19897;SDS011;10111;50.814;4.572;2023-02-01T11:42:52;7.97;;;3.50;;
19897;SDS011;10111;50.814;4.572;2023-02-01T11:45:39;11.90;;;2.30;;
19897;SDS011;10111;50.814;4.572;2023-02-01T11:48:14;7.13;;;2.27;;
19897;SDS011;10111;50.814;4.572;2023-02-01T11:50:56;10.53;;;2.90;;
19897;SDS011;10111;50.814;4.572;2023-02-01T11:56:25;12.70;;;2.37;;
19897;SDS011;10111;50.814;4.572;2023-02-01T12:05:03;9.70;;;2.17;;
19897;SDS011;10111;50.814;4.572;2023-02-01T12:07:44;8.60;;;2.23;;
19897;SDS011;10111;50.814;4.572;2023-02-01T12:32:59;6.57;;;1.83;;
19897;SDS011;10111;50.814;4.572;2023-02-01T12:35:49;4.83;;;1.53;;
19897;SDS011;10111;50.814;4.572;2023-02-01T12:38:48;4.73;;;1.60;;
19897;SDS011;10111;50.814;4.572;2023-02-01T12:47:27;3.60;;;1.37;;
19897;SDS011;10111;50.814;4.572;2023-02-01T12:50:04;12.83;;;2.50;;
19897;SDS011;10111;50.814;4.572;2023-02-01T12:52:47;5.80;;;1.43;;
19897;SDS011;10111;50.814;4.572;2023-02-01T12:55:20;5.60;;;2.10;;
19897;SDS011;10111;50.814;4.572;2023-02-01T12:57:51;6.47;;;1.53;;
19897;SDS011;10111;50.814;4.572;2023-02-01T13:03:05;3.10;;;2.07;;
19897;SDS011;10111;50.814;4.572;2023-02-01T13:06:19;8.57;;;3.50;;
19897;SDS011;10111;50.814;4.572;2023-02-01T13:08:47;6.43;;;1.70;;
19897;SDS011;10111;50.814;4.572;2023-02-01T13:11:33;5.20;;;1.87;;
19897;SDS011;10111;50.814;4.572;2023-02-01T13:14:03;7.73;;;1.77;;
19897;SDS011;10111;50.814;4.572;2023-02-01T13:16:43;8.30;;;1.77;;
19897;SDS011;10111;50.814;4.572;2023-02-01T13:22:05;4.33;;;1.30;;
19897;SDS011;10111;50.814;4.572;2023-02-01T13:27:13;5.00;;;1.17;;
19897;SDS011;10111;50.814;4.572;2023-02-01T13:29:52;4.23;;;1.57;;
19897;SDS011;10111;50.814;4.572;2023-02-01T13:42:50;5.67;;;1.10;;
19897;SDS011;10111;50.814;4.572;2023-02-01T13:45:20;5.70;;;2.20;;
19897;SDS011;10111;50.814;4.572;2023-02-01T13:47:49;4.30;;;1.37;;
19897;SDS011;10111;50.814;4.572;2023-02-01T13:52:56;6.03;;;1.50;;
19897;SDS011;10111;50.814;4.572;2023-02-01T13:55:39;3.87;;;1.40;;
19897;SDS011;10111;50.814;4.572;2023-02-01T13:58:13;9.17;;;1.60;;
19897;SDS011;10111;50.814;4.572;2023-02-01T14:00:43;4.27;;;1.43;;
19897;SDS011;10111;50.814;4.572;2023-02-01T14:03:11;4.23;;;1.37;;
19897;SDS011;10111;50.814;4.572;2023-02-01T14:44:43;11.97;;;3.67;;
19897;SDS011;10111;50.814;4.572;2023-02-01T14:47:10;5.00;;;1.97;;
19897;SDS011;10111;50.814;4.572;2023-02-01T14:52:23;3.80;;;1.40;;
19897;SDS011;10111;50.814;4.572;2023-02-01T14:54:57;9.27;;;1.80;;
19897;SDS011;10111;50.814;4.572;2023-02-01T14:57:30;4.23;;;1.90;;
19897;SDS011;10111;50.814;4.572;2023-02-01T15:00:06;5.60;;;1.53;;
19897;SDS011;10111;50.814;4.572;2023-02-01T15:02:44;4.30;;;1.80;;
19897;SDS011;10111;50.814;4.572;2023-02-01T15:07:55;5.20;;;2.00;;
19897;SDS011;10111;50.814;4.572;2023-02-01T15:10:24;6.03;;;1.60;;
19897;SDS011;10111;50.814;4.572;2023-02-01T15:12:50;5.40;;;1.67;;
19897;SDS011;10111;50.814;4.572;2023-02-01T15:15:20;5.67;;;1.63;;
19897;SDS011;10111;50.814;4.572;2023-02-01T15:17:49;7.03;;;1.60;;
19897;SDS011;10111;50.814;4.572;2023-02-01T15:20:18;4.33;;;1.50;;
19897;SDS011;10111;50.814;4.572;2023-02-01T15:22:53;5.93;;;1.93;;
19897;SDS011;10111;50.814;4.572;2023-02-01T15:25:19;7.53;;;2.83;;
19897;SDS011;10111;50.814;4.572;2023-02-01T15:27:47;6.17;;;2.70;;
19897;SDS011;10111;50.814;4.572;2023-02-01T15:30:17;7.77;;;2.63;;
19897;SDS011;10111;50.814;4.572;2023-02-01T15:32:51;3.53;;;1.80;;
19897;SDS011;10111;50.814;4.572;2023-02-01T15:35:38;7.90;;;2.17;;
19897;SDS011;10111;50.814;4.572;2023-02-01T15:38:24;6.43;;;1.97;;
19897;SDS011;10111;50.814;4.572;2023-02-01T15:41:06;8.27;;;1.83;;
19897;SDS011;10111;50.814;4.572;2023-02-01T15:46:08;8.93;;;2.57;;
19897;SDS011;10111;50.814;4.572;2023-02-01T15:48:40;10.07;;;2.93;;
19897;SDS011;10111;50.814;4.572;2023-02-01T15:51:27;10.27;;;2.80;;
19897;SDS011;10111;50.814;4.572;2023-02-01T15:53:59;6.70;;;2.03;;
19897;SDS011;10111;50.814;4.572;2023-02-01T15:56:32;6.77;;;2.07;;
19897;SDS011;10111;50.814;4.572;2023-02-01T15:59:02;5.70;;;2.10;;
19897;SDS011;10111;50.814;4.572;2023-02-01T16:01:34;7.77;;;2.83;;
19897;SDS011;10111;50.814;4.572;2023-02-01T16:04:12;7.60;;;2.70;;
19897;SDS011;10111;50.814;4.572;2023-02-01T16:07:01;9.07;;;2.13;;
19897;SDS011;10111;50.814;4.572;2023-02-01T16:09:49;6.03;;;2.37;;
19897;SDS011;10111;50.814;4.572;2023-02-01T16:12:24;7.70;;;2.27;;
19897;SDS011;10111;50.814;4.572;2023-02-01T16:14:56;4.83;;;1.93;;
19897;SDS011;10111;50.814;4.572;2023-02-01T16:17:22;8.60;;;3.03;;
19897;SDS011;10111;50.814;4.572;2023-02-01T16:19:48;5.97;;;2.37;;
19897;SDS011;10111;50.814;4.572;2023-02-01T16:22:14;7.80;;;2.47;;
19897;SDS011;10111;50.814;4.572;2023-02-01T16:24:39;5.33;;;1.87;;
19897;SDS011;10111;50.814;4.572;2023-02-01T16:27:05;8.30;;;1.93;;
19897;SDS011;10111;50.814;4.572;2023-02-01T16:29:32;5.90;;;2.10;;
19897;SDS011;10111;50.814;4.572;2023-02-01T16:31:58;6.37;;;1.87;;
19897;SDS011;10111;50.814;4.572;2023-02-01T16:34:24;6.63;;;2.20;;
19897;SDS011;10111;50.814;4.572;2023-02-01T16:36:50;5.03;;;1.63;;
19897;SDS011;10111;50.814;4.572;2023-02-01T16:39:22;8.67;;;3.27;;
19897;SDS011;10111;50.814;4.572;2023-02-01T16:41:48;8.53;;;2.77;;
19897;SDS011;10111;50.814;4.572;2023-02-01T16:44:14;8.33;;;3.10;;
19897;SDS011;10111;50.814;4.572;2023-02-01T16:46:43;8.17;;;4.00;;
19897;SDS011;10111;50.814;4.572;2023-02-01T16:49:16;6.90;;;4.10;;
19897;SDS011;10111;50.814;4.572;2023-02-01T16:51:44;10.87;;;3.47;;
19897;SDS011;10111;50.814;4.572;2023-02-01T16:54:11;11.30;;;3.30;;
19897;SDS011;10111;50.814;4.572;2023-02-01T16:56:37;6.13;;;3.07;;
19897;SDS011;10111;50.814;4.572;2023-02-01T16:59:06;6.97;;;2.67;;
19897;SDS011;10111;50.814;4.572;2023-02-01T17:01:33;9.63;;;3.03;;
19897;SDS011;10111;50.814;4.572;2023-02-01T17:03:59;7.50;;;2.40;;
19897;SDS011;10111;50.814;4.572;2023-02-01T17:06:25;9.93;;;2.37;;
19897;SDS011;10111;50.814;4.572;2023-02-01T17:08:53;8.20;;;2.50;;
19897;SDS011;10111;50.814;4.572;2023-02-01T17:11:20;8.37;;;3.17;;
19897;SDS011;10111;50.814;4.572;2023-02-01T17:13:46;7.13;;;2.37;;
19897;SDS011;10111;50.814;4.572;2023-02-01T17:16:19;7.90;;;2.67;;
19897;SDS011;10111;50.814;4.572;2023-02-01T17:21:27;8.40;;;2.77;;
19897;SDS011;10111;50.814;4.572;2023-02-01T17:23:55;9.97;;;3.87;;
19897;SDS011;10111;50.814;4.572;2023-02-01T17:26:23;9.93;;;2.90;;
19897;SDS011;10111;50.814;4.572;2023-02-01T17:28:49;7.60;;;1.97;;
19897;SDS011;10111;50.814;4.572;2023-02-01T17:31:15;6.50;;;2.07;;
19897;SDS011;10111;50.814;4.572;2023-02-01T17:33:41;8.70;;;2.50;;
19897;SDS011;10111;50.814;4.572;2023-02-01T17:36:10;11.70;;;2.23;;
19897;SDS011;10111;50.814;4.572;2023-02-01T17:38:38;9.60;;;2.03;;
19897;SDS011;10111;50.814;4.572;2023-02-01T17:41:04;6.17;;;2.30;;
19897;SDS011;10111;50.814;4.572;2023-02-01T17:43:30;6.00;;;2.23;;
19897;SDS011;10111;50.814;4.572;2023-02-01T17:46:15;9.10;;;2.53;;
19897;SDS011;10111;50.814;4.572;2023-02-01T17:48:42;7.93;;;2.87;;